createdAt,value
2023-04-16T00:03:24.536Z,38.4
2023-04-16T00:08:25.219Z,38.3
2023-04-16T00:13:25.667Z,38.2
2023-04-16T00:18:26.133Z,38.2
2023-04-16T00:23:26.587Z,38.1
2023-04-16T00:28:27.199Z,38.1
2023-04-16T00:33:27.655Z,38.1
2023-04-16T00:38:28.274Z,38
2023-04-16T00:43:28.803Z,37.9
2023-04-16T00:48:29.210Z,37.9
2023-04-16T00:53:29.633Z,37.8
2023-04-16T00:58:30.041Z,37.8
2023-04-16T01:03:31.120Z,37.7
2023-04-16T01:08:31.703Z,37.7
2023-04-16T01:13:32.078Z,37.6
2023-04-16T01:18:32.638Z,37.6
2023-04-16T01:23:33.040Z,37.6
2023-04-16T01:28:33.403Z,37.5
2023-04-16T01:33:33.844Z,37.4
2023-04-16T01:38:34.288Z,37.4
2023-04-16T01:43:34.654Z,37.4
2023-04-16T01:48:35.034Z,37.3
2023-04-16T01:53:36.993Z,37.3
2023-04-16T01:58:37.484Z,37.2
2023-04-16T02:03:38.007Z,37.2
2023-04-16T02:08:38.581Z,37.1
2023-04-16T02:13:38.942Z,37.1
2023-04-16T02:18:39.330Z,37.1
2023-04-16T02:23:39.723Z,37
2023-04-16T02:28:40.112Z,37
2023-04-16T02:33:40.541Z,36.9
2023-04-16T02:38:41.069Z,36.9
2023-04-16T02:43:41.579Z,36.9
2023-04-16T02:48:41.986Z,36.8
2023-04-16T02:53:42.417Z,36.7
2023-04-16T02:58:42.901Z,36.7
2023-04-16T03:03:43.354Z,36.7
2023-04-16T03:08:43.753Z,36.6
2023-04-16T03:13:44.158Z,36.6
2023-04-16T03:18:44.548Z,36.6
2023-04-16T03:23:44.928Z,36.5
2023-04-16T03:28:45.354Z,36.5
2023-04-16T03:33:45.894Z,36.4
2023-04-16T03:38:46.291Z,36.4
2023-04-16T03:43:46.667Z,36.4
2023-04-16T03:48:47.050Z,36.3
2023-04-16T03:53:47.458Z,36.2
2023-04-16T03:58:47.910Z,36.2
2023-04-16T04:03:48.498Z,36.2
2023-04-16T04:08:49.098Z,36.2
2023-04-16T04:13:49.467Z,36.1
2023-04-16T04:18:49.983Z,36.1
2023-04-16T04:23:50.407Z,36.1
2023-04-16T04:28:50.909Z,36
2023-04-16T04:33:51.892Z,35.9
2023-04-16T04:38:52.347Z,35.9
2023-04-16T04:43:52.757Z,35.9
2023-04-16T04:48:53.135Z,35.9
2023-04-16T04:53:53.517Z,35.8
2023-04-16T04:58:53.976Z,35.8
2023-04-16T05:03:54.439Z,35.7
2023-04-16T05:08:54.965Z,35.7
2023-04-16T05:13:55.524Z,35.7
2023-04-16T05:18:55.930Z,35.6
2023-04-16T05:23:56.654Z,35.6
2023-04-16T05:28:57.293Z,35.6
2023-04-16T05:33:57.884Z,35.6
2023-04-16T05:38:59.533Z,35.5
2023-04-16T05:43:59.900Z,35.5
2023-04-16T05:49:00.279Z,35.4
2023-04-16T05:54:00.694Z,35.4
2023-04-16T05:59:01.062Z,35.4
2023-04-16T06:04:01.507Z,35.3
2023-04-16T06:09:02.001Z,35.3
2023-04-16T06:14:02.386Z,35.2
2023-04-16T06:19:02.997Z,35.2
2023-04-16T06:24:03.421Z,35.2
2023-04-16T06:29:03.831Z,35.2
2023-04-16T06:34:04.198Z,35.1
2023-04-16T06:39:04.728Z,34.9
2023-04-16T06:44:05.081Z,34.7
2023-04-16T06:49:05.380Z,34.7
2023-04-16T06:54:05.671Z,34.7
2023-04-16T06:59:06.021Z,34.6
2023-04-16T07:04:06.517Z,34.6
2023-04-16T07:09:06.972Z,34.6
2023-04-16T07:14:07.439Z,34.6
2023-04-16T07:19:08.060Z,34.5
2023-04-16T07:24:08.539Z,34.4
2023-04-16T07:29:09.034Z,34.4
2023-04-16T07:34:09.631Z,34.4
2023-04-16T07:39:10.114Z,34.4
2023-04-16T07:44:10.596Z,34.4
2023-04-16T07:49:11.028Z,34.3
2023-04-16T07:54:11.429Z,34.3
2023-04-16T08:04:15.315Z,34.2
2023-04-16T08:09:15.732Z,34.2
2023-04-16T08:14:16.040Z,34.2
2023-04-16T08:19:16.325Z,34.2
2023-04-16T08:24:16.632Z,34.1
2023-04-16T08:29:16.919Z,34.1
2023-04-16T08:34:17.216Z,34.1
2023-04-16T08:39:17.650Z,34.1
2023-04-16T08:44:18.095Z,34
2023-04-16T08:49:18.503Z,34
2023-04-16T08:54:18.944Z,33.9
2023-04-16T08:59:19.257Z,33.9
2023-04-16T09:04:19.624Z,33.9
2023-04-16T09:09:20.050Z,33.9
2023-04-16T09:14:20.349Z,33.9
2023-04-16T09:19:20.699Z,33.8
2023-04-16T09:24:21.046Z,33.8
2023-04-16T09:29:21.452Z,33.7
2023-04-16T09:34:21.732Z,33.7
2023-04-16T09:39:22.083Z,33.7
2023-04-16T09:44:22.418Z,33.7
2023-04-16T09:49:22.734Z,33.7
2023-04-16T09:54:23.948Z,33.6
2023-04-16T09:59:24.297Z,33.6
2023-04-16T10:04:24.794Z,33.6
2023-04-16T10:09:25.108Z,33.6
2023-04-16T10:14:25.416Z,33.6
2023-04-16T10:19:25.719Z,33.5
2023-04-16T10:24:26.027Z,33.5
2023-04-16T10:29:26.314Z,33.5
2023-04-16T10:34:26.597Z,33.4
2023-04-16T10:39:26.873Z,33.4
2023-04-16T10:44:27.184Z,33.4
2023-04-16T10:49:27.462Z,33.4
2023-04-16T10:54:27.744Z,33.4
2023-04-16T10:59:28.030Z,33.3
2023-04-16T11:04:29.361Z,33.3
2023-04-16T11:09:29.767Z,33.3
2023-04-16T11:14:30.034Z,33.2
2023-04-16T11:19:30.470Z,33.2
2023-04-16T11:24:30.830Z,33.2
2023-04-16T11:29:31.105Z,33.2
2023-04-16T11:34:31.373Z,33.2
2023-04-16T11:39:31.655Z,33.1
2023-04-16T11:44:31.974Z,33.1
2023-04-16T11:49:32.247Z,33.1
2023-04-16T11:54:32.517Z,33.1
2023-04-16T11:59:32.812Z,33.1
2023-04-16T12:04:33.189Z,33
2023-04-16T12:09:33.508Z,33
2023-04-16T12:14:33.780Z,33
2023-04-16T12:19:34.051Z,32.9
2023-04-16T12:24:35.435Z,32.9
2023-04-16T12:29:35.855Z,32.9
2023-04-16T12:34:48.676Z,32.9
2023-04-16T12:39:49.324Z,32.9
2023-04-16T12:44:49.613Z,32.9
2023-04-16T12:49:49.906Z,32.8
2023-04-16T12:54:50.184Z,32.8
2023-04-16T12:59:50.496Z,32.8
2023-04-16T13:04:50.845Z,32.7
2023-04-16T13:09:51.172Z,32.7
2023-04-16T13:14:51.443Z,32.7
2023-04-16T13:19:51.722Z,32.7
2023-04-16T13:24:51.992Z,32.7
2023-04-16T13:29:52.270Z,32.7
2023-04-16T13:34:52.554Z,32.6
2023-04-16T13:39:52.858Z,32.6
2023-04-16T13:44:53.272Z,32.6
2023-04-16T13:49:53.693Z,32.6
2023-04-16T13:54:53.971Z,32.6
2023-04-16T13:59:55.403Z,32.5
2023-04-16T14:04:55.875Z,32.5
2023-04-16T14:09:56.166Z,32.5
2023-04-16T14:14:56.426Z,32.4
2023-04-16T14:19:56.675Z,32.4
2023-04-16T14:24:56.988Z,32.4
2023-04-16T14:29:57.255Z,32.4
2023-04-16T14:34:57.549Z,32.4
2023-04-16T14:39:57.818Z,32.4
2023-04-16T14:44:58.303Z,32.3
2023-04-16T14:49:58.577Z,32.3
2023-04-16T14:54:58.869Z,32.3
2023-04-16T14:59:59.173Z,32.2
2023-04-16T15:04:59.439Z,32.2
2023-04-16T15:09:59.697Z,32.2
2023-04-16T15:15:00.023Z,32.2
2023-04-16T15:20:00.339Z,32.2
2023-04-16T15:25:00.605Z,32.2
2023-04-16T15:30:00.917Z,32.2
2023-04-16T15:35:01.431Z,32.1
2023-04-16T15:40:01.677Z,32.1
2023-04-16T15:45:01.935Z,32.1
2023-04-16T15:50:02.277Z,32.1
2023-04-16T15:55:04.172Z,32.1
2023-04-16T16:00:07.222Z,32.1
2023-04-16T16:05:07.796Z,32.1
2023-04-16T16:10:08.079Z,32
2023-04-16T16:15:11.414Z,32
2023-04-16T16:20:11.685Z,32
2023-04-16T16:25:11.952Z,31.9
2023-04-16T16:30:12.222Z,31.9
2023-04-16T16:35:12.634Z,31.9
2023-04-16T16:40:12.956Z,31.9
2023-04-16T16:45:13.359Z,31.9
2023-04-16T16:50:15.249Z,31.9
2023-04-16T16:55:16.672Z,31.9
2023-04-16T17:00:17.986Z,31.8
2023-04-16T17:05:18.317Z,31.8
2023-04-16T17:10:18.550Z,31.8
2023-04-16T17:15:20.663Z,31.8
2023-04-16T17:20:21.534Z,31.8
2023-04-16T17:25:21.971Z,31.8
2023-04-16T17:30:22.475Z,31.8
2023-04-16T17:35:24.454Z,31.7
2023-04-16T17:40:24.689Z,31.9
2023-04-16T17:45:25.027Z,34.8
2023-04-16T17:50:25.538Z,37.3
2023-04-16T17:55:26.019Z,40
2023-04-16T18:00:26.542Z,40.9
2023-04-16T18:05:27.252Z,40.6
2023-04-16T18:10:27.764Z,39.9
2023-04-16T18:15:28.324Z,41.1
2023-04-16T18:20:28.935Z,42.4
2023-04-16T18:25:34.177Z,42.7
2023-04-16T18:30:35.167Z,42.7
2023-04-16T18:35:35.915Z,43.1
2023-04-16T18:40:36.577Z,43.9
2023-04-16T18:45:37.495Z,44.1
2023-04-16T18:50:38.275Z,44.1
2023-04-16T18:55:38.808Z,44
2023-04-16T19:00:39.538Z,44
2023-04-16T19:05:40.148Z,43.9
2023-04-16T19:10:40.742Z,43.9
2023-04-16T19:15:41.915Z,43.9
2023-04-16T19:20:42.617Z,43.9
2023-04-16T19:25:43.252Z,43.8
2023-04-16T19:30:43.825Z,43.7
2023-04-16T19:35:44.465Z,43.7
2023-04-16T19:40:45.047Z,43.7
2023-04-16T19:45:45.747Z,43.7
2023-04-16T19:50:46.601Z,43.6
2023-04-16T19:55:47.237Z,43.6
2023-04-16T20:00:47.847Z,43.6
2023-04-16T20:05:48.591Z,43.5
2023-04-16T20:10:49.205Z,43.5
2023-04-16T20:15:49.782Z,43.4
2023-04-16T20:20:50.403Z,43.4
2023-04-16T20:25:50.988Z,43.4
2023-04-16T20:30:51.557Z,43.4
2023-04-16T20:35:52.215Z,43.3
2023-04-16T20:40:52.948Z,43.3
2023-04-16T20:45:53.674Z,43.3
2023-04-16T20:50:54.448Z,43.2
2023-04-16T20:55:55.023Z,43.2
2023-04-16T21:00:55.606Z,43.1
2023-04-16T21:05:56.168Z,43.1
2023-04-16T21:10:56.783Z,42.7
2023-04-16T21:15:57.539Z,40.2
2023-04-16T21:20:58.055Z,39.6
2023-04-16T21:25:58.675Z,39.4
2023-04-16T21:30:59.215Z,39.2
2023-04-16T21:35:59.938Z,39.1
2023-04-16T21:41:00.394Z,39
2023-04-16T21:46:00.828Z,38.9
2023-04-16T21:51:01.342Z,38.9
2023-04-16T21:56:01.808Z,38.8
2023-04-16T22:01:02.306Z,38.7
2023-04-16T22:06:02.781Z,38.6
2023-04-16T22:11:03.269Z,38.6
2023-04-16T22:16:03.736Z,38.5
2023-04-16T22:21:04.203Z,38.4
2023-04-16T22:26:04.683Z,38.4
2023-04-16T22:31:05.191Z,38.3
2023-04-16T22:36:05.652Z,38.2
2023-04-16T22:41:06.242Z,38.1
2023-04-16T22:46:06.848Z,38.1
2023-04-16T22:51:07.352Z,38
2023-04-16T22:56:07.808Z,37.9
2023-04-16T23:01:08.288Z,37.9
2023-04-16T23:06:08.720Z,37.8
2023-04-16T23:11:09.123Z,37.7
2023-04-16T23:16:09.550Z,37.7
2023-04-16T23:21:09.951Z,37.6
2023-04-16T23:26:10.361Z,37.6
2023-04-16T23:31:10.856Z,37.5
2023-04-16T23:36:11.255Z,37.4
2023-04-16T23:41:11.642Z,37.4
2023-04-16T23:46:12.225Z,37.3
2023-04-16T23:51:12.646Z,37.2
2023-04-16T23:56:13.010Z,37.2
